Time;durP1;ratioP1;P1;durP2;ratioP2;P2;SDS_P1;SDS_P2;PMS_P1;PMS_P2;Temp;Humidity;BMP_temperature;BMP_pressure;BME280_temperature;BME280_humidity;BME280_pressure;Samples;Min_cycle;Max_cycle;Signal;HPM_P1;HPM_P2
2022/04/25 00:00:21;;;;;;;14.07;8.70;;;;;;;;;;5082993;28;20493;-84
2022/04/25 00:03:05;;;;;;;17.42;8.73;;;;;;;;;;5097380;28;20122;-84
2022/04/25 00:05:50;;;;;;;16.20;9.10;;;;;;;;;;5111959;28;20161;-85
2022/04/25 00:08:34;;;;;;;19.65;9.95;;;;;;;;;;5083076;28;20043;-84
2022/04/25 00:11:19;;;;;;;16.20;8.88;;;;;;;;;;5105291;28;20046;-84
2022/04/25 00:14:06;;;;;;;20.60;9.75;;;;;;;;;;5091971;28;20051;-84
2022/04/25 00:16:56;;;;;;;17.17;9.65;;;;;;;;;;5090455;28;20039;-84
2022/04/25 00:19:40;;;;;;;17.30;9.57;;;;;;;;;;5077223;28;20392;-84
2022/04/25 00:22:25;;;;;;;17.63;9.13;;;;;;;;;;5092110;28;20127;-84
2022/04/25 00:25:09;;;;;;;15.88;9.88;;;;;;;;;;5091384;28;20039;-84
2022/04/25 00:27:54;;;;;;;17.40;10.52;;;;;;;;;;5090447;28;20043;-84
2022/04/25 00:30:39;;;;;;;14.98;9.80;;;;;;;;;;5090784;28;20036;-89
2022/04/25 00:33:24;;;;;;;16.30;10.32;;;;;;;;;;5091186;28;20059;-83
2022/04/25 00:36:09;;;;;;;15.25;10.52;;;;;;;;;;5090877;28;20047;-83
2022/04/25 00:38:53;;;;;;;16.35;10.40;;;;;;;;;;5090359;28;20093;-88
2022/04/25 00:41:38;;;;;;;21.27;10.32;;;;;;;;;;5092700;28;20034;-88
2022/04/25 00:44:23;;;;;;;20.48;11.73;;;;;;;;;;5091929;28;20034;-88
2022/04/25 00:47:09;;;;;;;18.60;10.52;;;;;;;;;;5091692;28;20039;-87
2022/04/25 00:49:56;;;;;;;18.08;11.05;;;;;;;;;;5076810;28;20432;-87
2022/04/25 00:52:41;;;;;;;17.15;10.75;;;;;;;;;;5076987;28;20086;-89
2022/04/25 00:55:26;;;;;;;22.95;11.80;;;;;;;;;;5091622;28;20078;-88
2022/04/25 00:58:13;;;;;;;17.67;11.30;;;;;;;;;;5091090;28;20039;-88
2022/04/25 01:00:58;;;;;;;21.40;11.32;;;;;;;;;;5095548;28;20059;-88
2022/04/25 01:03:45;;;;;;;20.45;11.63;;;;;;;;;;5094779;28;20043;-87
2022/04/25 01:06:33;;;;;;;18.33;11.38;;;;;;;;;;5094803;28;20035;-87
2022/04/25 01:09:18;;;;;;;18.50;11.50;;;;;;;;;;5094887;28;20403;-89
2022/04/25 01:12:03;;;;;;;18.95;11.18;;;;;;;;;;5103387;27;20068;-88
2022/04/25 01:14:55;;;;;;;20.55;11.90;;;;;;;;;;5120750;27;20489;-88
2022/04/25 01:17:43;;;;;;;18.80;11.27;;;;;;;;;;5121112;27;20084;-88
2022/04/25 01:20:30;;;;;;;22.10;11.88;;;;;;;;;;5121230;27;20079;-88
2022/04/25 01:29:28;;;;;;;19.08;10.73;;;;;;;;;;5124013;27;20088;-89
2022/04/25 01:32:14;;;;;;;23.75;11.27;;;;;;;;;;5120939;27;20049;-89
2022/04/25 01:35:08;;;;;;;23.95;13.20;;;;;;;;;;5120391;27;20437;-88
2022/04/25 01:37:53;;;;;;;22.42;13.98;;;;;;;;;;5120490;27;20039;-88
2022/04/25 01:40:37;;;;;;;22.05;12.45;;;;;;;;;;5136354;27;20527;-89
2022/04/25 01:43:25;;;;;;;19.83;11.93;;;;;;;;;;5120897;27;20081;-89
2022/04/25 01:46:09;;;;;;;18.98;11.70;;;;;;;;;;5120353;27;20029;-89
2022/04/25 01:48:54;;;;;;;24.35;12.93;;;;;;;;;;5120319;27;20038;-88
2022/04/25 01:51:40;;;;;;;21.80;13.45;;;;;;;;;;5120604;27;20539;-89
2022/04/25 01:54:28;;;;;;;20.58;12.20;;;;;;;;;;5120444;27;20127;-88
2022/04/25 01:57:15;;;;;;;20.20;12.57;;;;;;;;;;5119921;27;20107;-88
2022/04/25 02:00:00;;;;;;;21.42;11.57;;;;;;;;;;5119913;27;20080;-88
2022/04/25 02:02:48;;;;;;;21.95;12.48;;;;;;;;;;5135774;27;20091;-88
2022/04/25 02:05:32;;;;;;;19.80;11.55;;;;;;;;;;5120648;27;20069;-89
2022/04/25 02:08:17;;;;;;;18.75;10.73;;;;;;;;;;5120039;27;20029;-88
2022/04/25 02:11:21;;;;;;;25.05;13.20;;;;;;;;;;5135190;27;20137;-88
2022/04/25 02:14:06;;;;;;;22.83;11.45;;;;;;;;;;5119637;27;20096;-88
2022/04/25 02:16:51;;;;;;;20.48;11.52;;;;;;;;;;5120063;27;20444;-87
2022/04/25 02:19:38;;;;;;;22.05;12.48;;;;;;;;;;5120016;27;20037;-87
2022/04/25 02:22:23;;;;;;;18.25;10.60;;;;;;;;;;5119873;27;20118;-88
2022/04/25 02:25:16;;;;;;;21.80;12.10;;;;;;;;;;5119415;27;20050;-90
2022/04/25 02:28:01;;;;;;;21.05;10.63;;;;;;;;;;5105476;27;20449;-89
2022/04/25 02:30:51;;;;;;;19.35;11.85;;;;;;;;;;5120057;27;20038;-89
2022/04/25 02:33:36;;;;;;;21.42;11.30;;;;;;;;;;5119815;27;20045;-88
2022/04/25 02:36:21;;;;;;;17.10;10.43;;;;;;;;;;5119942;27;20030;-90
2022/04/25 02:39:06;;;;;;;17.08;11.18;;;;;;;;;;5119399;27;20077;-90
2022/04/25 02:41:51;;;;;;;17.45;10.40;;;;;;;;;;5119580;27;20039;-89
2022/04/25 02:44:36;;;;;;;19.58;10.93;;;;;;;;;;5119452;27;20053;-88
2022/04/25 02:47:24;;;;;;;19.15;10.32;;;;;;;;;;5104852;27;20037;-90
2022/04/25 02:50:11;;;;;;;19.05;11.52;;;;;;;;;;5105129;27;20081;-89
2022/04/25 02:52:56;;;;;;;18.90;10.30;;;;;;;;;;5105408;27;20046;-92
2022/04/25 02:55:41;;;;;;;14.05;8.85;;;;;;;;;;5119775;27;20056;-90
2022/04/25 02:58:26;;;;;;;15.35;9.15;;;;;;;;;;5119537;27;20065;-90
2022/04/25 03:01:11;;;;;;;17.58;8.75;;;;;;;;;;5118816;27;20033;-88
2022/04/25 03:03:56;;;;;;;18.75;11.18;;;;;;;;;;5119188;27;20058;-88
2022/04/25 03:06:45;;;;;;;16.17;8.90;;;;;;;;;;5119156;27;20083;-88
2022/04/25 03:09:33;;;;;;;16.67;9.32;;;;;;;;;;5105386;27;20088;-90
2022/04/25 03:12:20;;;;;;;16.42;8.68;;;;;;;;;;5118742;27;20545;-90
2022/04/25 03:15:05;;;;;;;15.93;9.23;;;;;;;;;;5119025;27;20030;-90
2022/04/25 03:18:00;;;;;;;15.88;9.65;;;;;;;;;;5119240;27;20038;-91
2022/04/25 03:20:48;;;;;;;16.30;8.35;;;;;;;;;;5119215;27;20115;-89
2022/04/25 03:23:36;;;;;;;16.55;8.68;;;;;;;;;;5134696;27;20046;-90
2022/04/25 03:26:20;;;;;;;19.42;9.35;;;;;;;;;;5119024;27;20081;-89
2022/04/25 03:29:05;;;;;;;18.40;11.20;;;;;;;;;;5119713;27;20038;-90
2022/04/25 03:31:50;;;;;;;14.40;9.77;;;;;;;;;;5119170;27;20438;-90
2022/04/25 03:34:38;;;;;;;17.63;10.10;;;;;;;;;;5104642;27;20123;-91
2022/04/25 03:37:26;;;;;;;16.00;9.60;;;;;;;;;;5105111;27;20287;-92
2022/04/25 03:40:14;;;;;;;16.60;9.52;;;;;;;;;;5122460;27;20038;-92
2022/04/25 03:42:59;;;;;;;20.55;9.90;;;;;;;;;;5126967;27;20121;-90
2022/04/25 03:45:44;;;;;;;15.52;9.82;;;;;;;;;;5141137;27;20030;-89
2022/04/25 03:48:28;;;;;;;16.08;9.20;;;;;;;;;;5119598;27;20088;-92
2022/04/25 03:51:14;;;;;;;21.17;10.25;;;;;;;;;;5118687;27;20398;-88
2022/04/25 03:53:59;;;;;;;17.73;9.68;;;;;;;;;;5104505;27;20705;-90
2022/04/25 03:59:47;;;;;;;20.80;9.63;;;;;;;;;;5134380;27;20039;-91
2022/04/25 04:02:32;;;;;;;17.75;10.65;;;;;;;;;;5119057;28;20037;-90
2022/04/25 04:05:19;;;;;;;16.15;9.95;;;;;;;;;;5118671;28;20123;-91
2022/04/25 04:08:04;;;;;;;18.90;9.38;;;;;;;;;;5118419;27;20054;-89
2022/04/25 04:10:49;;;;;;;18.45;10.15;;;;;;;;;;5118298;28;20038;-88
2022/04/25 04:13:36;;;;;;;17.40;10.07;;;;;;;;;;5118362;28;20057;-89
2022/04/25 04:16:21;;;;;;;15.60;9.05;;;;;;;;;;5118204;28;20037;-89
2022/04/25 04:19:06;;;;;;;17.23;9.15;;;;;;;;;;5118771;28;20039;-88
2022/04/25 04:21:53;;;;;;;15.43;8.73;;;;;;;;;;5118676;28;20046;-89
2022/04/25 04:24:38;;;;;;;14.85;9.10;;;;;;;;;;5118243;28;20111;-89
2022/04/25 04:27:25;;;;;;;18.17;9.18;;;;;;;;;;5118494;28;20429;-89
2022/04/25 04:30:10;;;;;;;18.42;9.27;;;;;;;;;;5118163;28;20116;-89
2022/04/25 04:33:00;;;;;;;14.45;9.82;;;;;;;;;;5118073;27;20126;-89
2022/04/25 04:38:51;;;;;;;18.40;9.48;;;;;;;;;;5137807;27;20034;-90
2022/04/25 04:41:36;;;;;;;17.50;10.20;;;;;;;;;;5121557;27;20033;-90
2022/04/25 04:44:21;;;;;;;15.77;9.40;;;;;;;;;;5121827;27;20042;-90
2022/04/25 04:47:05;;;;;;;14.35;8.98;;;;;;;;;;5122058;27;20080;-90
2022/04/25 04:49:50;;;;;;;15.27;8.48;;;;;;;;;;5122360;27;20661;-90
2022/04/25 04:52:34;;;;;;;15.15;8.80;;;;;;;;;;5121592;27;20046;-90
2022/04/25 04:55:19;;;;;;;13.95;8.95;;;;;;;;;;5121422;27;20394;-90
2022/04/25 04:58:04;;;;;;;18.20;9.30;;;;;;;;;;5122518;27;20436;-91
2022/04/25 05:00:49;;;;;;;14.38;8.93;;;;;;;;;;5122003;27;20046;-93
2022/04/25 05:03:41;;;;;;;13.52;8.60;;;;;;;;;;5118156;27;20122;-95
2022/04/25 05:06:29;;;;;;;11.73;8.20;;;;;;;;;;5122075;27;20084;-92
2022/04/25 05:09:14;;;;;;;15.38;7.47;;;;;;;;;;5122223;27;20034;-89
2022/04/25 05:15:34;;;;;;;14.88;8.52;;;;;;;;;;5150298;22;20135;-89
2022/04/25 05:18:19;;;;;;;14.90;7.28;;;;;;;;;;5044400;28;20039;-91
2022/04/25 05:21:05;;;;;;;10.95;7.18;;;;;;;;;;5076242;28;20039;-92
2022/04/25 05:23:53;;;;;;;12.52;6.20;;;;;;;;;;5075864;28;20044;-93
2022/04/25 05:26:37;;;;;;;14.38;7.55;;;;;;;;;;5075311;28;20106;-92
2022/04/25 05:29:24;;;;;;;14.52;8.52;;;;;;;;;;5074858;28;20400;-91
2022/04/25 05:32:09;;;;;;;13.77;8.35;;;;;;;;;;5075272;28;20094;-91
2022/04/25 05:34:54;;;;;;;14.73;8.30;;;;;;;;;;5075779;28;20044;-93
2022/04/25 05:37:39;;;;;;;14.50;8.07;;;;;;;;;;5046003;28;20070;-91
2022/04/25 05:40:26;;;;;;;13.70;7.68;;;;;;;;;;5074455;28;20207;-91
2022/04/25 05:43:11;;;;;;;14.10;8.20;;;;;;;;;;5074866;28;20048;-91
2022/04/25 05:45:56;;;;;;;15.52;9.00;;;;;;;;;;5044325;28;20047;-93
2022/04/25 05:51:59;;;;;;;18.65;7.85;;;;;;;;;;5070101;28;20043;-92
2022/04/25 05:54:46;;;;;;;15.35;8.27;;;;;;;;;;5055527;28;20051;-93
2022/04/25 05:57:31;;;;;;;14.05;7.47;;;;;;;;;;5055629;28;20120;-93
2022/04/25 06:00:15;;;;;;;15.48;7.97;;;;;;;;;;5047344;28;20032;-92
2022/04/25 06:03:02;;;;;;;15.50;8.38;;;;;;;;;;5042645;28;20036;-89
2022/04/25 06:05:46;;;;;;;14.52;7.65;;;;;;;;;;5042680;28;20486;-89
2022/04/25 06:08:31;;;;;;;13.68;8.10;;;;;;;;;;5028077;28;20055;-91
2022/04/25 06:11:16;;;;;;;14.18;8.70;;;;;;;;;;5055118;28;20440;-92
2022/04/25 06:14:06;;;;;;;13.00;7.78;;;;;;;;;;5054285;28;20052;-91
2022/04/25 06:16:51;;;;;;;14.70;7.80;;;;;;;;;;5056246;28;20056;-91
2022/04/25 06:19:36;;;;;;;11.88;8.27;;;;;;;;;;5053316;28;20114;-92
2022/04/25 06:22:24;;;;;;;10.75;7.32;;;;;;;;;;5061518;28;20100;-92
2022/04/25 06:25:09;;;;;;;13.57;8.00;;;;;;;;;;5066456;28;20040;-91
2022/04/25 06:28:04;;;;;;;13.32;7.85;;;;;;;;;;5067206;28;20089;-90
2022/04/25 06:30:49;;;;;;;11.30;6.55;;;;;;;;;;5052148;28;20044;-90
2022/04/25 06:36:14;;;;;;;15.93;8.27;;;;;;;;;;5161887;27;20173;-88
2022/04/25 06:38:59;;;;;;;11.38;7.47;;;;;;;;;;5162946;27;20030;-90
2022/04/25 06:41:47;;;;;;;14.68;6.95;;;;;;;;;;5136745;28;20057;-91
2022/04/25 06:44:32;;;;;;;11.93;7.55;;;;;;;;;;5137211;27;20494;-90
2022/04/25 06:47:16;;;;;;;13.30;6.50;;;;;;;;;;5144348;27;20039;-90
2022/04/25 06:50:01;;;;;;;10.75;6.38;;;;;;;;;;5130212;27;20041;-92
2022/04/25 06:52:46;;;;;;;11.73;7.00;;;;;;;;;;5141063;27;20431;-91
2022/04/25 06:55:31;;;;;;;12.00;7.32;;;;;;;;;;5135796;27;20043;-93
2022/04/25 06:58:26;;;;;;;11.98;7.70;;;;;;;;;;5130655;27;20042;-90
2022/04/25 07:01:11;;;;;;;11.40;6.90;;;;;;;;;;5130124;28;20464;-89
2022/04/25 07:03:58;;;;;;;13.90;6.95;;;;;;;;;;5129985;28;20212;-92
2022/04/25 07:06:44;;;;;;;13.07;6.88;;;;;;;;;;5129825;28;20165;-87
2022/04/25 07:09:28;;;;;;;14.45;7.80;;;;;;;;;;5129045;27;20165;-87
2022/04/25 07:12:13;;;;;;;10.45;6.13;;;;;;;;;;5165648;27;20030;-87
2022/04/25 07:15:01;;;;;;;11.15;6.32;;;;;;;;;;5137068;27;20481;-93
2022/04/25 07:17:50;;;;;;;19.33;7.20;;;;;;;;;;5134711;27;20042;-91
2022/04/25 07:20:35;;;;;;;14.68;7.65;;;;;;;;;;5127319;28;20088;-90
2022/04/25 07:29:27;;;;;;;13.35;7.82;;;;;;;;;;5130182;28;20555;-89
2022/04/25 07:32:12;;;;;;;13.13;7.32;;;;;;;;;;5114483;28;20045;-88
2022/04/25 07:34:56;;;;;;;14.80;6.80;;;;;;;;;;5128360;28;20049;-91
2022/04/25 07:37:42;;;;;;;11.65;6.47;;;;;;;;;;5128192;28;20034;-89
2022/04/25 07:40:26;;;;;;;13.73;7.40;;;;;;;;;;5128704;28;20618;-89
2022/04/25 07:43:11;;;;;;;11.95;7.10;;;;;;;;;;5128786;28;20153;-89
2022/04/25 07:45:56;;;;;;;15.93;7.95;;;;;;;;;;5124608;28;20506;-89
2022/04/25 07:48:41;;;;;;;13.63;7.07;;;;;;;;;;5114680;28;20084;-89
2022/04/25 07:51:28;;;;;;;13.32;7.38;;;;;;;;;;5115182;28;20077;-90
2022/04/25 07:54:15;;;;;;;11.85;7.35;;;;;;;;;;5116018;28;20063;-90
2022/04/25 07:57:03;;;;;;;11.98;7.22;;;;;;;;;;5114741;28;20077;-91
2022/04/25 07:59:48;;;;;;;16.98;8.80;;;;;;;;;;5114594;28;20038;-88
2022/04/25 08:02:32;;;;;;;16.48;8.95;;;;;;;;;;5114700;28;20474;-90
2022/04/25 08:05:17;;;;;;;15.55;9.55;;;;;;;;;;5116088;28;20088;-90
2022/04/25 08:08:04;;;;;;;17.85;8.73;;;;;;;;;;5115040;28;20058;-90
2022/04/25 08:10:49;;;;;;;16.77;9.18;;;;;;;;;;5114388;28;20076;-91
2022/04/25 08:19:43;;;;;;;16.25;8.65;;;;;;;;;;5115317;28;20119;-90
2022/04/25 08:22:34;;;;;;;17.38;8.30;;;;;;;;;;5114424;28;20042;-92
2022/04/25 08:25:19;;;;;;;20.48;8.85;;;;;;;;;;5114363;28;20042;-88
2022/04/25 08:28:05;;;;;;;16.75;9.65;;;;;;;;;;5114216;28;20030;-90
2022/04/25 08:30:52;;;;;;;17.38;8.77;;;;;;;;;;5113847;28;20034;-89
2022/04/25 08:33:37;;;;;;;18.60;9.23;;;;;;;;;;5114649;28;20136;-90
2022/04/25 08:36:22;;;;;;;18.98;9.10;;;;;;;;;;5114086;28;20046;-89
2022/04/25 08:39:07;;;;;;;17.42;9.40;;;;;;;;;;5113801;28;20042;-93
2022/04/25 08:42:00;;;;;;;20.50;8.80;;;;;;;;;;5113890;28;20035;-89
2022/04/25 08:44:49;;;;;;;;;;;8.10;99.90;;;;;;5113890;28;20081;-90
2022/04/25 08:47:42;;;;;;;17.60;9.05;;;;;;;;;;5113801;28;20007;-89
2022/04/25 08:50:28;;;;;;;17.52;9.50;;;;;;;;;;5114063;28;20035;-91
2022/04/25 08:53:13;;;;;;;14.75;8.60;;;;;;;;;;5114559;28;20165;-90
2022/04/25 08:55:59;;;;;;;17.08;8.82;;;;;;;;;;5099207;28;20093;-90
2022/04/25 08:58:46;;;;;;;17.20;9.50;;;;;;;;;;5112986;28;20061;-91
2022/04/25 09:01:32;;;;;;;17.30;10.38;;;;;;;;;;5114256;28;20038;-91
2022/04/25 09:04:20;;;;;;;15.90;9.13;;;;;;;;;;5113962;28;20406;-91
2022/04/25 09:07:05;;;;;;;20.10;9.43;;;;;;;;;;5114621;28;20069;-91
2022/04/25 09:09:52;;;;;;;13.82;8.82;;;;;;;;;;5113431;28;20593;-91
2022/04/25 09:12:45;;;;;;;17.70;9.20;;;;;;;;;;5113840;28;20050;-89
2022/04/25 09:15:31;;;;;;;14.93;9.23;;;;;;;;;;5114113;28;20043;-91
2022/04/25 09:18:16;;;;;;;18.25;10.05;;;;;;;;;;5113486;28;20035;-89
2022/04/25 09:21:04;;;;;;;17.38;8.68;;;;;;;;;;5112863;28;20042;-90
2022/04/25 09:23:48;;;;;;;17.63;8.73;;;;;;;;;;5113076;28;20449;-91
2022/04/25 09:26:41;;;;;;;14.30;8.75;;;;;;;;;;5113176;28;20054;-89
2022/04/25 09:29:30;;;;;;;15.20;8.50;;;8.00;99.90;;;;;;5100101;28;20490;-91
2022/04/25 09:32:16;;;;;;;14.68;8.73;;;;;;;;;;5113326;28;20081;-90
2022/04/25 09:35:21;;;;;;;16.70;8.23;;;;;;;;;;5112454;28;20519;-89
2022/04/25 09:38:08;;;;;;;12.88;6.57;;;;;;;;;;5112645;28;20047;-91
2022/04/25 09:40:53;;;;;;;10.98;6.32;;;;;;;;;;5112605;28;20083;-89
2022/04/25 09:43:39;;;;;;;14.07;7.30;;;;;;;;;;5113124;28;20038;-89
2022/04/25 09:46:24;;;;;;;10.85;5.82;;;;;;;;;;5113198;28;20490;-90
2022/04/25 09:49:08;;;;;;;11.18;6.05;;;;;;;;;;5112284;28;20038;-89
2022/04/25 09:52:00;;;;;;;11.05;6.00;;;;;;;;;;5111949;28;20039;-90
2022/04/25 09:54:45;;;;;;;10.77;5.35;;;;;;;;;;5112947;28;20034;-89
2022/04/25 09:57:33;;;;;;;9.65;5.85;;;;;;;;;;5098857;28;20564;-91
2022/04/25 10:00:36;;;;;;;12.52;5.97;;;;;;;;;;5114182;28;20042;-89
2022/04/25 10:03:34;;;;;;;8.85;6.22;;;;;;;;;;5112689;28;20042;-90
2022/04/25 10:06:21;;;;;;;9.20;6.30;;;;;;;;;;5113729;28;20119;-91
2022/04/25 10:09:06;;;;;;;9.65;5.35;;;;;;;;;;5112077;28;20119;-89
2022/04/25 10:11:52;;;;;;;8.63;5.50;;;;;;;;;;5112775;28;20042;-89
2022/04/25 10:14:38;;;;;;;9.82;5.95;;;;;;;;;;5112414;28;20528;-90
2022/04/25 10:17:23;;;;;;;8.38;5.95;;;;;;;;;;5098300;28;20051;-89
2022/04/25 10:20:11;;;;;;;8.45;5.78;;;;;;;;;;5111797;28;20059;-90
2022/04/25 10:22:56;;;;;;;12.40;6.13;;;;;;;;;;5112054;28;20060;-90
2022/04/25 10:25:46;;;;;;;11.25;5.97;;;;;;;;;;5112656;28;20042;-90
2022/04/25 10:28:36;;;;;;;9.10;5.70;;;;;;;;;;5112892;28;20077;-93
2022/04/25 10:31:27;;;;;;;12.57;6.07;;;;;;;;;;5112430;28;20490;-90
2022/04/25 10:34:16;;;;;;;10.65;5.97;;;;;;;;;;5112248;28;20059;-90
2022/04/25 10:37:06;;;;;;;9.40;5.50;;;;;;;;;;5117171;28;20038;-91
2022/04/25 10:39:57;;;;;;;11.25;5.35;;;;;;;;;;5128727;28;20107;-92
2022/04/25 10:45:59;;;;;;;8.65;5.60;;;;;;;;;;5114193;28;20514;-91
2022/04/25 10:49:03;;;;;;;11.25;5.15;;;10.70;99.90;;;;;;5112652;28;20034;-92
2022/04/25 10:51:51;;;;;;;8.25;5.38;;;;;;;;;;5112261;28;20039;-90
2022/04/25 10:54:49;;;;;;;9.40;5.82;;;;;;;;;;5112745;28;20090;-90
2022/04/25 10:57:33;;;;;;;10.95;5.70;;;;;;;;;;5114031;28;20038;-91
2022/04/25 11:00:41;;;;;;;8.52;4.85;;;;;;;;;;5112246;28;20076;-90
2022/04/25 11:03:38;;;;;;;10.60;5.90;;;;;;;;;;5082758;28;20075;-92
2022/04/25 11:06:33;;;;;;;11.52;6.20;;;;;;;;;;5111370;28;20136;-90
2022/04/25 11:09:40;;;;;;;7.90;4.93;;;;;;;;;;5111268;28;20042;-89
2022/04/25 11:12:58;;;;;;;10.73;6.55;;;11.20;99.90;;;;;;5111630;28;20100;-91
2022/04/25 11:15:46;;;;;;;8.27;5.45;;;;;;;;;;5112736;28;20065;-91
2022/04/25 11:18:34;;;;;;;9.63;5.55;;;;;;;;;;5111967;28;20039;-90
2022/04/25 11:21:32;;;;;;;10.52;6.40;;;;;;;;;;5113164;28;20042;-90
2022/04/25 11:24:33;;;;;;;10.80;6.22;;;;;;;;;;5115698;28;20119;-92
2022/04/25 11:27:23;;;;;;;8.40;5.28;;;;;;;;;;5115853;28;20069;-91
2022/04/25 11:30:19;;;;;;;9.93;6.40;;;;;;;;;;5115604;28;20092;-92
2022/04/25 11:33:04;;;;;;;11.63;6.30;;;;;;;;;;5115276;28;20035;-90
2022/04/25 11:36:01;;;;;;;7.78;5.80;;;;;;;;;;5115339;28;20177;-92
2022/04/25 11:42:09;;;;;;;9.55;5.70;;;;;;;;;;5116338;28;20122;-91
2022/04/25 11:44:55;;;;;;;10.93;5.88;;;;;;;;;;5101546;28;20509;-91
2022/04/25 11:47:40;;;;;;;10.05;6.35;;;;;;;;;;5116110;28;20500;-90
2022/04/25 11:50:25;;;;;;;9.48;6.10;;;11.60;99.90;;;;;;5114772;28;20076;-92
2022/04/25 11:53:10;;;;;;;10.10;5.47;;;;;;;;;;5114494;28;20119;-89
2022/04/25 11:55:55;;;;;;;11.10;6.47;;;;;;;;;;5116035;28;20506;-93
2022/04/25 11:58:41;;;;;;;10.48;7.00;;;;;;;;;;5115133;28;20050;-90
2022/04/25 12:01:46;;;;;;;9.13;6.05;;;;;;;;;;5114354;28;20487;-92
2022/04/25 12:04:35;;;;;;;13.02;6.68;;;;;;;;;;5115652;28;20046;-90
2022/04/25 12:07:21;;;;;;;11.82;6.85;;;12.20;99.90;;;;;;5114412;28;20214;-92
2022/04/25 12:16:14;;;;;;;10.95;6.25;;;;;;;;;;5116697;28;20498;-91
2022/04/25 12:19:01;;;;;;;11.25;6.95;;;;;;;;;;5117422;28;20043;-90
2022/04/25 12:21:59;;;;;;;11.57;7.28;;;;;;;;;;5126249;28;20030;-91
2022/04/25 12:24:46;;;;;;;9.38;6.05;;;;;;;;;;5121016;28;20035;-89
2022/04/25 12:27:31;;;;;;;11.00;6.90;;;;;;;;;;5133038;28;20395;-89
2022/04/25 12:30:15;;;;;;;11.73;7.18;;;;;;;;;;5118503;28;20035;-89
2022/04/25 12:33:07;;;;;;;10.25;6.07;;;;;;;;;;5117126;28;20258;-91
2022/04/25 12:36:07;;;;;;;13.45;6.43;;;;;;;;;;5115677;28;20063;-90
2022/04/25 12:38:59;;;;;;;9.98;6.30;;;;;;;;;;5117228;28;20544;-89
2022/04/25 12:41:54;;;;;;;9.23;6.45;;;;;;;;;;5116338;28;20038;-90
2022/04/25 12:44:39;;;;;;;9.82;5.75;;;;;;;;;;5117197;28;20077;-89
2022/04/25 12:47:27;;;;;;;10.50;5.70;;;;;;;;;;5115041;28;20080;-90
2022/04/25 12:50:12;;;;;;;11.00;6.47;;;;;;;;;;5114157;28;20051;-88
2022/04/25 12:52:59;;;;;;;12.52;6.50;;;;;;;;;;5099824;28;20565;-90
2022/04/25 12:57:09;;;;;;;9.95;5.80;;;;;;;;;;5132214;27;20345;-89
2022/04/25 12:59:54;;;;;;;9.63;5.80;;;;;;;;;;5128658;28;20047;-86
2022/04/25 13:02:42;;;;;;;12.88;6.07;;;;;;;;;;5128404;28;20070;-91
2022/04/25 13:05:29;;;;;;;9.85;6.68;;;;;;;;;;5126542;28;20046;-87
2022/04/25 13:08:14;;;;;;;9.32;5.95;;;;;;;;;;5114354;28;20539;-88
2022/04/25 13:10:58;;;;;;;9.77;5.85;;;;;;;;;;5125573;28;20076;-87
2022/04/25 13:13:43;;;;;;;10.27;5.95;;;;;;;;;;5130321;28;20030;-88
2022/04/25 13:16:29;;;;;;;11.25;5.53;;;;;;;;;;5127849;28;20096;-90
2022/04/25 13:19:16;;;;;;;8.00;5.78;;;;;;;;;;5128444;28;20038;-89
2022/04/25 13:22:01;;;;;;;11.30;5.90;;;;;;;;;;5128855;28;20034;-88
2022/04/25 13:24:54;;;;;;;9.52;6.22;;;;;;;;;;5113835;28;20070;-89
2022/04/25 13:27:39;;;;;;;9.13;5.43;;;;;;;;;;5128534;28;20283;-89
2022/04/25 13:30:24;;;;;;;8.70;5.20;;;;;;;;;;5127714;28;20115;-89
2022/04/25 13:33:11;;;;;;;9.38;5.82;;;;;;;;;;5113463;28;20042;-89
2022/04/25 13:35:56;;;;;;;10.02;6.15;;;;;;;;;;5097917;28;20046;-90
2022/04/25 13:38:43;;;;;;;9.18;5.35;;;;;;;;;;5107848;28;20104;-89
2022/04/25 13:41:29;;;;;;;9.10;5.25;;;;;;;;;;5127115;28;20034;-91
2022/04/25 13:44:14;;;;;;;8.85;5.85;;;;;;;;;;5122485;28;20062;-89
2022/04/25 13:46:59;;;;;;;7.85;5.38;;;;;;;;;;5114497;28;20066;-89
2022/04/25 13:49:45;;;;;;;9.13;5.50;;;;;;;;;;5128264;28;20039;-89
2022/04/25 13:52:30;;;;;;;7.35;5.38;;;;;;;;;;5129323;28;20097;-89
2022/04/25 13:55:16;;;;;;;8.82;5.20;;;;;;;;;;5114025;28;20450;-89
2022/04/25 13:58:03;;;;;;;13.90;5.47;;;;;;;;;;5128565;28;20038;-90
2022/04/25 14:00:50;;;;;;;8.25;5.55;;;;;;;;;;5128993;28;20095;-88
2022/04/25 14:03:35;;;;;;;8.25;5.63;;;;;;;;;;5129419;28;20034;-87
2022/04/25 14:06:20;;;;;;;8.82;5.88;;;;;;;;;;5140381;28;20077;-88
2022/04/25 14:09:06;;;;;;;8.90;6.10;;;;;;;;;;5100543;28;20084;-89
2022/04/25 14:11:51;;;;;;;10.95;4.55;;;;;;;;;;5115069;28;20041;-88
2022/04/25 14:14:37;;;;;;;9.00;5.60;;;;;;;;;;5114084;28;20096;-89
2022/04/25 14:17:21;;;;;;;8.88;4.88;;;;;;;;;;5114595;28;20418;-89
2022/04/25 14:20:06;;;;;;;9.05;5.28;;;;;;;;;;5114374;28;20039;-88
2022/04/25 14:22:54;;;;;;;11.15;5.25;;;;;;;;;;5115221;28;20039;-88
2022/04/25 14:25:38;;;;;;;8.93;5.78;;;;;;;;;;5116535;28;20042;-90
2022/04/25 14:28:23;;;;;;;9.55;5.45;;;;;;;;;;5114615;28;20030;-89
2022/04/25 14:31:07;;;;;;;11.15;5.90;;;;;;;;;;5113878;28;20034;-89
2022/04/25 14:33:52;;;;;;;11.60;5.35;;;;;;;;;;5114778;28;20035;-88
2022/04/25 14:36:37;;;;;;;8.05;5.05;;;;;;;;;;5099249;28;20134;-88
2022/04/25 14:39:22;;;;;;;9.07;5.30;;;;;;;;;;5114935;28;20119;-88
2022/04/25 14:42:06;;;;;;;8.50;6.40;;;;;;;;;;5113737;28;20041;-87
2022/04/25 14:44:51;;;;;;;10.45;5.88;;;;;;;;;;5099124;28;20124;-88
2022/04/25 14:47:36;;;;;;;9.93;5.00;;;;;;;;;;5113149;28;20046;-87
2022/04/25 14:56:28;;;;;;;8.97;5.73;;;;;;;;;;5114098;28;20062;-88
2022/04/25 14:59:15;;;;;;;9.52;5.88;;;;;;;;;;5113518;28;20081;-87
2022/04/25 15:01:59;;;;;;;10.13;5.53;;;;;;;;;;5113407;28;20180;-88
2022/04/25 15:04:44;;;;;;;9.20;5.45;;;;;;;;;;5112758;28;20077;-89
2022/04/25 15:07:28;;;;;;;7.47;5.30;;;;;;;;;;5099235;28;20123;-87
2022/04/25 15:10:13;;;;;;;10.18;6.00;;;;;;;;;;5113221;28;20039;-90
2022/04/25 15:13:00;;;;;;;13.55;5.70;;;;;;;;;;5113211;28;20093;-88
2022/04/25 15:15:45;;;;;;;9.35;5.85;;;;;;;;;;5112708;28;20046;-88
2022/04/25 15:18:32;;;;;;;7.95;5.85;;;;;;;;;;5112105;28;20046;-88
2022/04/25 15:21:17;;;;;;;10.27;6.18;;;;;;;;;;5114138;28;20047;-88
2022/04/25 15:24:01;;;;;;;8.93;6.18;;;;;;;;;;5113152;28;20059;-89
2022/04/25 15:26:49;;;;;;;9.13;6.22;;;;;;;;;;5113587;28;20042;-87
2022/04/25 15:29:34;;;;;;;9.90;5.50;;;;;;;;;;5112725;28;20551;-87
2022/04/25 15:32:18;;;;;;;7.93;5.93;;;;;;;;;;5113139;28;20038;-87
2022/04/25 15:35:03;;;;;;;12.88;6.20;;;;;;;;;;5112992;28;20038;-88
2022/04/25 15:37:48;;;;;;;11.68;5.35;;;;;;;;;;5113325;28;20131;-88
2022/04/25 15:40:36;;;;;;;10.85;5.28;;;;;;;;;;5112734;28;20034;-88
2022/04/25 15:43:20;;;;;;;9.75;4.85;;;;;;;;;;5113636;28;20046;-87
2022/04/25 15:46:04;;;;;;;8.88;4.90;;;;;;;;;;5112529;28;20087;-87
2022/04/25 15:48:49;;;;;;;8.07;4.78;;;;;;;;;;5111913;28;20038;-88
2022/04/25 15:51:35;;;;;;;7.13;4.60;;;;;;;;;;5111986;28;20088;-89
2022/04/25 16:00:26;;;;;;;7.40;4.03;;;;;;;;;;5113804;28;20070;-91
2022/04/25 16:03:13;;;;;;;5.88;3.70;;;;;;;;;;5112409;28;20034;-90
2022/04/25 16:05:59;;;;;;;8.38;4.00;;;;;;;;;;5097832;28;20049;-90
2022/04/25 16:08:46;;;;;;;7.97;4.40;;;;;;;;;;5098199;28;20074;-90
2022/04/25 16:11:37;;;;;;;9.13;4.75;;;;;;;;;;5098451;28;20043;-92
2022/04/25 16:14:29;;;;;;;12.85;4.10;;;;;;;;;;5112515;28;20093;-92
2022/04/25 16:17:14;;;;;;;7.35;3.92;;;;;;;;;;5112728;28;20043;-89
2022/04/25 16:19:59;;;;;;;9.48;4.15;;;;;;;;;;5111081;28;20087;-90
2022/04/25 16:22:47;;;;;;;5.65;3.67;;;;;;;;;;5092449;28;20485;-91
2022/04/25 16:25:32;;;;;;;10.63;3.90;;;;;;;;;;5092414;28;20395;-91
2022/04/25 16:28:16;;;;;;;7.82;3.80;;;;;;;;;;5092098;28;20407;-91
2022/04/25 16:31:04;;;;;;;8.75;3.85;;;;;;;;;;5090737;28;20039;-88
2022/04/25 16:33:49;;;;;;;10.65;3.88;;;;;;;;;;5089806;28;20042;-90
2022/04/25 16:36:34;;;;;;;9.98;3.47;;;;;;;;;;5099118;28;20531;-91
2022/04/25 16:39:19;;;;;;;7.78;3.63;;;;;;;;;;5112385;28;20039;-90
2022/04/25 16:42:06;;;;;;;5.50;3.20;;;;;;;;;;5111803;28;20087;-90
2022/04/25 16:44:51;;;;;;;10.15;3.38;;;;;;;;;;5111675;28;20035;-89
2022/04/25 16:47:36;;;;;;;5.20;2.85;;;;;;;;;;5113090;28;20101;-91
2022/04/25 16:50:20;;;;;;;6.25;2.97;;;;;;;;;;5111907;28;20062;-90
2022/04/25 16:53:10;;;;;;;7.90;3.08;;;;;;;;;;5112527;28;20062;-92
2022/04/25 16:55:54;;;;;;;4.80;2.50;;;;;;;;;;5108054;28;20415;-90
2022/04/25 16:58:39;;;;;;;6.75;2.30;;;;;;;;;;5112017;28;20120;-92
2022/04/25 17:01:27;;;;;;;5.50;2.40;;;;;;;;;;5111619;28;20171;-91
2022/04/25 17:04:12;;;;;;;5.00;2.38;;;;;;;;;;5111581;28;20038;-91
2022/04/25 17:07:00;;;;;;;7.80;2.53;;;;;;;;;;5111917;28;20506;-90
2022/04/25 17:09:45;;;;;;;6.65;2.53;;;;;;;;;;5112365;28;20078;-90
2022/04/25 17:12:33;;;;;;;4.55;2.25;;;;;;;;;;5097836;28;20084;-89
2022/04/25 17:15:17;;;;;;;5.40;1.85;;;;;;;;;;5112225;28;20045;-90
2022/04/25 17:18:02;;;;;;;4.35;2.05;;;;;;;;;;5097228;28;20054;-90
2022/04/25 17:20:47;;;;;;;4.63;1.70;;;;;;;;;;5097659;28;20043;-90
2022/04/25 17:23:34;;;;;;;2.50;1.60;;;;;;;;;;5112275;28;20047;-92